Погода Олешевона неделю

Тверская область, Россия

25 - 31 мая
  • 25мая
    Сегодня
    +12°
    +25°
    Ясно и безоблачно
    ВремяПогодаТемператураВлажностьДавлениеВетер, м/сВероятность осадков
    00:00Ясно и безоблачно+13°C51 %757 мм1.6 м/с2 %
    03:00Ясно и безоблачно+11°C59 %757 мм1.6 м/с2 %
    06:00Ясно и безоблачно+13°C58 %757 мм1.7 м/с2 %
    09:00Ясно и безоблачно+20°C49 %757 мм2.4 м/с2 %
    12:00Ясно и безоблачно+23°C36 %756 мм2.8 м/с2 %
    15:00Ясно и безоблачно+25°C35 %755 мм2.8 м/с2 %
    18:00Ясно и безоблачно+25°C38 %754 мм2.3 м/с2 %
    21:00Ясно и безоблачно+18°C59 %754 мм0.8 м/с2 %
  • 26мая
    Воскресенье
    +9°
    +23°
    Практически безоблачно
    ВремяПогодаТемператураВлажностьДавлениеВетер, м/сВероятность осадков
    00:00Ясно и безоблачно+14°C68 %754 мм1.2 м/с2 %
    03:00Ясно и безоблачно+12°C79 %754 мм1.0 м/с1 %
    06:00Облачно с прояснениями+14°C79 %754 мм0.8 м/с2 %
    09:00Облачно с прояснениями+20°C73 %755 мм1.7 м/с20 %
    12:00Облачно с прояснениями+20°C62 %755 мм1.9 м/с45 %
    15:00Практически безоблачно+22°C53 %755 мм2.3 м/с35 %
    18:00Облачно с прояснениями+22°C41 %755 мм1.6 м/с23 %
    21:00Ясно и безоблачно+17°C51 %755 мм0.9 м/с5 %
  • 27мая
    Понедельник
    +12°
    +24°
    Ясно и безоблачно
    ВремяПогодаТемператураВлажностьДавлениеВетер, м/сВероятность осадков
    00:00Ясно и безоблачно+13°C56 %756 мм1.2 м/с2 %
    03:00Ясно и безоблачно+11°C61 %757 мм1.3 м/с2 %
    06:00Ясно и безоблачно+12°C68 %757 мм1.1 м/с2 %
    09:00Ясно и безоблачно+19°C48 %757 мм1.8 м/с2 %
    12:00Ясно и безоблачно+22°C36 %757 мм1.8 м/с2 %
    15:00Ясно и безоблачно+23°C33 %756 мм1.6 м/с2 %
    18:00Ясно и безоблачно+23°C34 %755 мм1.2 м/с2 %
    21:00Ясно и безоблачно+18°C57 %754 мм0.5 м/с2 %
  • 28мая
    Вторник
    +13°
    +27°
    Практически безоблачно
    ВремяПогодаТемператураВлажностьДавлениеВетер, м/сВероятность осадков
    00:00Ясно и безоблачно+14°C60 %754 мм0.8 м/с2 %
    03:00Ясно и безоблачно+12°C71 %754 мм0.7 м/с2 %
    06:00Ясно и безоблачно+13°C73 %753 мм0.7 м/с2 %
    09:00Ясно и безоблачно+22°C55 %754 мм1.0 м/с2 %
    12:00Ясно и безоблачно+24°C39 %753 мм1.2 м/с13 %
    15:00Практически безоблачно+26°C36 %753 мм1.0 м/с17 %
    18:00Ясно и безоблачно+26°C36 %751 мм1.2 м/с28 %
    21:00Практически безоблачно+19°C57 %751 мм0.6 м/с5 %
Мы используем cookies
Соглашаюсь